sensor_id;sensor_type;location;lat;lon;timestamp;P1;durP1;ratioP1;P2;durP2;ratioP2
70951;SDS011;69214;55.880;37.542;2023-05-07T00:01:59;1.02;;;0.10;;
70951;SDS011;69214;55.880;37.542;2023-05-07T00:04:24;2.13;;;0.10;;
70951;SDS011;69214;55.880;37.542;2023-05-07T00:06:50;0.67;;;0.10;;
70951;SDS011;69214;55.880;37.542;2023-05-07T00:09:16;2.13;;;0.20;;
70951;SDS011;69214;55.880;37.542;2023-05-07T00:11:42;0.40;;;0.10;;
70951;SDS011;69214;55.880;37.542;2023-05-07T00:14:07;0.47;;;0.10;;
70951;SDS011;69214;55.880;37.542;2023-05-07T00:16:33;0.87;;;0.10;;
70951;SDS011;69214;55.880;37.542;2023-05-07T00:18:59;0.45;;;0.10;;
70951;SDS011;69214;55.880;37.542;2023-05-07T00:21:25;1.42;;;0.25;;
70951;SDS011;69214;55.880;37.542;2023-05-07T00:23:54;1.17;;;0.20;;
70951;SDS011;69214;55.880;37.542;2023-05-07T00:26:19;0.98;;;0.10;;
70951;SDS011;69214;55.880;37.542;2023-05-07T00:28:48;0.20;;;0.10;;
70951;SDS011;69214;55.880;37.542;2023-05-07T00:31:14;1.75;;;0.30;;
70951;SDS011;69214;55.880;37.542;2023-05-07T00:33:40;0.67;;;0.10;;
70951;SDS011;69214;55.880;37.542;2023-05-07T00:36:06;0.32;;;0.10;;
70951;SDS011;69214;55.880;37.542;2023-05-07T00:38:32;1.05;;;0.15;;
70951;SDS011;69214;55.880;37.542;2023-05-07T00:40:58;1.07;;;0.10;;
70951;SDS011;69214;55.880;37.542;2023-05-07T00:43:23;1.02;;;0.28;;
70951;SDS011;69214;55.880;37.542;2023-05-07T00:45:49;1.05;;;0.10;;
70951;SDS011;69214;55.880;37.542;2023-05-07T00:48:15;1.00;;;0.20;;
70951;SDS011;69214;55.880;37.542;2023-05-07T00:50:41;1.20;;;0.30;;
70951;SDS011;69214;55.880;37.542;2023-05-07T00:53:07;1.27;;;0.17;;
70951;SDS011;69214;55.880;37.542;2023-05-07T00:55:33;0.60;;;0.10;;
70951;SDS011;69214;55.880;37.542;2023-05-07T00:58:00;0.73;;;0.20;;
70951;SDS011;69214;55.880;37.542;2023-05-07T01:00:26;0.75;;;0.13;;
70951;SDS011;69214;55.880;37.542;2023-05-07T01:02:52;0.60;;;0.10;;
70951;SDS011;69214;55.880;37.542;2023-05-07T01:05:18;0.20;;;0.07;;
70951;SDS011;69214;55.880;37.542;2023-05-07T01:07:47;0.95;;;0.10;;
70951;SDS011;69214;55.880;37.542;2023-05-07T01:10:15;1.67;;;0.10;;
70951;SDS011;69214;55.880;37.542;2023-05-07T01:12:42;0.28;;;0.08;;
70951;SDS011;69214;55.880;37.542;2023-05-07T01:15:10;0.40;;;0.10;;
70951;SDS011;69214;55.880;37.542;2023-05-07T01:17:37;0.90;;;0.10;;
70951;SDS011;69214;55.880;37.542;2023-05-07T01:20:09;1.33;;;0.15;;
70951;SDS011;69214;55.880;37.542;2023-05-07T01:22:36;0.85;;;0.20;;
70951;SDS011;69214;55.880;37.542;2023-05-07T01:25:05;0.22;;;0.10;;
70951;SDS011;69214;55.880;37.542;2023-05-07T01:27:32;0.40;;;0.10;;
70951;SDS011;69214;55.880;37.542;2023-05-07T01:29:59;0.70;;;0.10;;
70951;SDS011;69214;55.880;37.542;2023-05-07T01:32:27;0.82;;;0.17;;
70951;SDS011;69214;55.880;37.542;2023-05-07T01:34:58;1.38;;;0.10;;
70951;SDS011;69214;55.880;37.542;2023-05-07T01:37:28;0.30;;;0.10;;
70951;SDS011;69214;55.880;37.542;2023-05-07T01:39:54;0.80;;;0.10;;
70951;SDS011;69214;55.880;37.542;2023-05-07T01:42:21;1.40;;;0.10;;
70951;SDS011;69214;55.880;37.542;2023-05-07T01:44:47;0.22;;;0.03;;
70951;SDS011;69214;55.880;37.542;2023-05-07T01:47:13;1.00;;;0.10;;
70951;SDS011;69214;55.880;37.542;2023-05-07T01:49:40;0.38;;;0.03;;
70951;SDS011;69214;55.880;37.542;2023-05-07T01:52:07;0.20;;;0.10;;
70951;SDS011;69214;55.880;37.542;2023-05-07T01:54:34;0.60;;;0.00;;
70951;SDS011;69214;55.880;37.542;2023-05-07T01:57:00;0.50;;;0.05;;
70951;SDS011;69214;55.880;37.542;2023-05-07T01:59:25;1.13;;;0.30;;
70951;SDS011;69214;55.880;37.542;2023-05-07T02:01:51;0.23;;;0.10;;
70951;SDS011;69214;55.880;37.542;2023-05-07T02:04:17;0.25;;;0.10;;
70951;SDS011;69214;55.880;37.542;2023-05-07T02:06:43;0.60;;;0.20;;
70951;SDS011;69214;55.880;37.542;2023-05-07T02:09:10;0.85;;;0.20;;
70951;SDS011;69214;55.880;37.542;2023-05-07T02:11:38;0.77;;;0.10;;
70951;SDS011;69214;55.880;37.542;2023-05-07T02:14:04;0.47;;;0.10;;
70951;SDS011;69214;55.880;37.542;2023-05-07T02:16:30;0.68;;;0.17;;
70951;SDS011;69214;55.880;37.542;2023-05-07T02:18:56;1.38;;;0.10;;
70951;SDS011;69214;55.880;37.542;2023-05-07T02:21:24;0.30;;;0.10;;
70951;SDS011;69214;55.880;37.542;2023-05-07T02:23:50;0.30;;;0.10;;
70951;SDS011;69214;55.880;37.542;2023-05-07T02:26:16;0.75;;;0.10;;
70951;SDS011;69214;55.880;37.542;2023-05-07T02:28:42;0.73;;;0.20;;
70951;SDS011;69214;55.880;37.542;2023-05-07T02:31:07;1.10;;;0.20;;
70951;SDS011;69214;55.880;37.542;2023-05-07T02:33:34;1.02;;;0.28;;
70951;SDS011;69214;55.880;37.542;2023-05-07T02:36:08;1.45;;;0.20;;
70951;SDS011;69214;55.880;37.542;2023-05-07T02:38:41;0.60;;;0.15;;
70951;SDS011;69214;55.880;37.542;2023-05-07T02:41:06;0.70;;;0.10;;
70951;SDS011;69214;55.880;37.542;2023-05-07T02:43:32;1.17;;;0.30;;
70951;SDS011;69214;55.880;37.542;2023-05-07T02:46:04;1.03;;;0.20;;
70951;SDS011;69214;55.880;37.542;2023-05-07T02:48:34;1.17;;;0.25;;
70951;SDS011;69214;55.880;37.542;2023-05-07T02:51:01;1.48;;;0.20;;
70951;SDS011;69214;55.880;37.542;2023-05-07T02:53:28;0.68;;;0.17;;
70951;SDS011;69214;55.880;37.542;2023-05-07T02:55:55;1.33;;;0.25;;
70951;SDS011;69214;55.880;37.542;2023-05-07T02:58:22;0.53;;;0.10;;
70951;SDS011;69214;55.880;37.542;2023-05-07T03:00:48;0.52;;;0.10;;
70951;SDS011;69214;55.880;37.542;2023-05-07T03:03:34;0.57;;;0.20;;
70951;SDS011;69214;55.880;37.542;2023-05-07T03:06:00;1.35;;;0.20;;
70951;SDS011;69214;55.880;37.542;2023-05-07T03:08:26;1.05;;;0.22;;
70951;SDS011;69214;55.880;37.542;2023-05-07T03:10:52;1.03;;;0.20;;
70951;SDS011;69214;55.880;37.542;2023-05-07T03:13:18;1.40;;;0.32;;
70951;SDS011;69214;55.880;37.542;2023-05-07T03:15:44;1.30;;;0.25;;
70951;SDS011;69214;55.880;37.542;2023-05-07T03:18:10;1.77;;;0.30;;
70951;SDS011;69214;55.880;37.542;2023-05-07T03:20:36;1.33;;;0.38;;
70951;SDS011;69214;55.880;37.542;2023-05-07T03:23:02;1.05;;;0.45;;
70951;SDS011;69214;55.880;37.542;2023-05-07T03:25:28;4.93;;;0.57;;
70951;SDS011;69214;55.880;37.542;2023-05-07T03:27:57;2.47;;;0.63;;
70951;SDS011;69214;55.880;37.542;2023-05-07T03:30:27;2.08;;;0.70;;
70951;SDS011;69214;55.880;37.542;2023-05-07T03:32:52;1.98;;;0.65;;
70951;SDS011;69214;55.880;37.542;2023-05-07T03:35:18;2.90;;;0.90;;
70951;SDS011;69214;55.880;37.542;2023-05-07T03:37:44;4.22;;;1.00;;
70951;SDS011;69214;55.880;37.542;2023-05-07T03:40:11;2.90;;;0.80;;
70951;SDS011;69214;55.880;37.542;2023-05-07T03:42:45;3.28;;;0.88;;
70951;SDS011;69214;55.880;37.542;2023-05-07T03:45:12;3.50;;;1.00;;
70951;SDS011;69214;55.880;37.542;2023-05-07T03:47:41;2.43;;;0.73;;
70951;SDS011;69214;55.880;37.542;2023-05-07T03:50:08;2.85;;;0.85;;
70951;SDS011;69214;55.880;37.542;2023-05-07T03:52:35;2.90;;;0.73;;
70951;SDS011;69214;55.880;37.542;2023-05-07T03:55:02;3.08;;;1.00;;
70951;SDS011;69214;55.880;37.542;2023-05-07T03:57:30;3.35;;;0.80;;
70951;SDS011;69214;55.880;37.542;2023-05-07T03:59:57;4.83;;;0.87;;
70951;SDS011;69214;55.880;37.542;2023-05-07T04:02:23;2.92;;;0.70;;
70951;SDS011;69214;55.880;37.542;2023-05-07T04:04:50;2.33;;;1.00;;
70951;SDS011;69214;55.880;37.542;2023-05-07T04:07:15;2.55;;;0.70;;
70951;SDS011;69214;55.880;37.542;2023-05-07T04:09:46;2.63;;;0.70;;
70951;SDS011;69214;55.880;37.542;2023-05-07T04:12:12;2.15;;;0.60;;
70951;SDS011;69214;55.880;37.542;2023-05-07T04:14:38;1.88;;;0.60;;
70951;SDS011;69214;55.880;37.542;2023-05-07T04:17:04;2.85;;;0.88;;
70951;SDS011;69214;55.880;37.542;2023-05-07T04:19:32;1.83;;;0.90;;
70951;SDS011;69214;55.880;37.542;2023-05-07T04:21:58;2.20;;;0.65;;
70951;SDS011;69214;55.880;37.542;2023-05-07T04:24:24;1.63;;;0.60;;
70951;SDS011;69214;55.880;37.542;2023-05-07T04:26:50;1.77;;;0.50;;
70951;SDS011;69214;55.880;37.542;2023-05-07T04:29:17;1.90;;;0.70;;
70951;SDS011;69214;55.880;37.542;2023-05-07T04:31:42;1.83;;;0.60;;
70951;SDS011;69214;55.880;37.542;2023-05-07T04:34:10;1.40;;;0.60;;
70951;SDS011;69214;55.880;37.542;2023-05-07T04:36:37;2.13;;;0.60;;
70951;SDS011;69214;55.880;37.542;2023-05-07T04:39:09;1.77;;;0.40;;
70951;SDS011;69214;55.880;37.542;2023-05-07T04:41:36;1.52;;;0.70;;
70951;SDS011;69214;55.880;37.542;2023-05-07T04:44:02;2.55;;;0.63;;
70951;SDS011;69214;55.880;37.542;2023-05-07T04:46:31;2.10;;;0.60;;
70951;SDS011;69214;55.880;37.542;2023-05-07T04:48:57;1.35;;;0.55;;
70951;SDS011;69214;55.880;37.542;2023-05-07T04:51:22;1.63;;;0.47;;
70951;SDS011;69214;55.880;37.542;2023-05-07T04:53:48;1.90;;;0.70;;
70951;SDS011;69214;55.880;37.542;2023-05-07T04:56:14;1.80;;;0.52;;
70951;SDS011;69214;55.880;37.542;2023-05-07T04:58:43;2.10;;;0.43;;
70951;SDS011;69214;55.880;37.542;2023-05-07T05:01:09;1.83;;;0.60;;
70951;SDS011;69214;55.880;37.542;2023-05-07T05:03:37;1.80;;;0.60;;
70951;SDS011;69214;55.880;37.542;2023-05-07T05:06:04;2.13;;;0.80;;
70951;SDS011;69214;55.880;37.542;2023-05-07T05:08:33;1.23;;;0.60;;
70951;SDS011;69214;55.880;37.542;2023-05-07T05:11:01;2.13;;;0.60;;
70951;SDS011;69214;55.880;37.542;2023-05-07T05:13:28;2.95;;;0.70;;
70951;SDS011;69214;55.880;37.542;2023-05-07T05:15:53;2.13;;;0.40;;
70951;SDS011;69214;55.880;37.542;2023-05-07T05:18:19;1.73;;;0.55;;
70951;SDS011;69214;55.880;37.542;2023-05-07T05:20:46;1.90;;;0.45;;
70951;SDS011;69214;55.880;37.542;2023-05-07T05:23:11;1.87;;;0.50;;
70951;SDS011;69214;55.880;37.542;2023-05-07T05:25:38;1.60;;;0.50;;
70951;SDS011;69214;55.880;37.542;2023-05-07T05:28:06;1.10;;;0.50;;
70951;SDS011;69214;55.880;37.542;2023-05-07T05:30:33;1.42;;;0.50;;
70951;SDS011;69214;55.880;37.542;2023-05-07T05:33:01;1.20;;;0.60;;
70951;SDS011;69214;55.880;37.542;2023-05-07T05:35:27;1.10;;;0.60;;
70951;SDS011;69214;55.880;37.542;2023-05-07T05:37:53;1.30;;;0.60;;
70951;SDS011;69214;55.880;37.542;2023-05-07T05:40:19;1.50;;;0.40;;
70951;SDS011;69214;55.880;37.542;2023-05-07T05:42:46;1.40;;;0.50;;
70951;SDS011;69214;55.880;37.542;2023-05-07T05:45:12;1.30;;;0.50;;
70951;SDS011;69214;55.880;37.542;2023-05-07T05:47:38;1.73;;;0.60;;
70951;SDS011;69214;55.880;37.542;2023-05-07T05:50:06;2.33;;;0.65;;
70951;SDS011;69214;55.880;37.542;2023-05-07T05:52:32;1.55;;;0.60;;
70951;SDS011;69214;55.880;37.542;2023-05-07T05:54:58;1.25;;;0.50;;
70951;SDS011;69214;55.880;37.542;2023-05-07T05:57:24;1.43;;;0.50;;
70951;SDS011;69214;55.880;37.542;2023-05-07T05:59:50;1.65;;;0.52;;
70951;SDS011;69214;55.880;37.542;2023-05-07T06:02:17;2.30;;;0.70;;
70951;SDS011;69214;55.880;37.542;2023-05-07T06:04:43;1.00;;;0.60;;
70951;SDS011;69214;55.880;37.542;2023-05-07T06:07:12;1.83;;;0.70;;
70951;SDS011;69214;55.880;37.542;2023-05-07T06:09:37;1.23;;;0.70;;
70951;SDS011;69214;55.880;37.542;2023-05-07T06:12:04;1.30;;;0.50;;
70951;SDS011;69214;55.880;37.542;2023-05-07T06:14:31;0.67;;;0.40;;
70951;SDS011;69214;55.880;37.542;2023-05-07T06:16:56;2.65;;;0.35;;
70951;SDS011;69214;55.880;37.542;2023-05-07T06:19:22;0.93;;;0.40;;
70951;SDS011;69214;55.880;37.542;2023-05-07T06:21:50;0.82;;;0.30;;
70951;SDS011;69214;55.880;37.542;2023-05-07T06:24:16;0.60;;;0.30;;
70951;SDS011;69214;55.880;37.542;2023-05-07T06:26:42;0.98;;;0.30;;
70951;SDS011;69214;55.880;37.542;2023-05-07T06:29:08;0.90;;;0.37;;
70951;SDS011;69214;55.880;37.542;2023-05-07T06:31:33;1.35;;;0.30;;
70951;SDS011;69214;55.880;37.542;2023-05-07T06:34:05;0.43;;;0.20;;
70951;SDS011;69214;55.880;37.542;2023-05-07T06:36:35;1.65;;;0.30;;
70951;SDS011;69214;55.880;37.542;2023-05-07T06:39:07;0.97;;;0.30;;
70951;SDS011;69214;55.880;37.542;2023-05-07T06:41:33;0.90;;;0.40;;
70951;SDS011;69214;55.880;37.542;2023-05-07T06:44:06;1.10;;;0.30;;
70951;SDS011;69214;55.880;37.542;2023-05-07T06:46:42;2.90;;;0.40;;
70951;SDS011;69214;55.880;37.542;2023-05-07T06:49:08;1.07;;;0.30;;
70951;SDS011;69214;55.880;37.542;2023-05-07T06:51:34;0.73;;;0.30;;
70951;SDS011;69214;55.880;37.542;2023-05-07T06:54:02;0.47;;;0.20;;
70951;SDS011;69214;55.880;37.542;2023-05-07T06:56:31;1.38;;;0.40;;
70951;SDS011;69214;55.880;37.542;2023-05-07T06:58:57;2.97;;;0.40;;
70951;SDS011;69214;55.880;37.542;2023-05-07T07:01:23;1.87;;;0.60;;
70951;SDS011;69214;55.880;37.542;2023-05-07T07:03:49;1.60;;;0.60;;
70951;SDS011;69214;55.880;37.542;2023-05-07T07:06:17;1.20;;;0.50;;
70951;SDS011;69214;55.880;37.542;2023-05-07T07:08:42;1.20;;;0.40;;
70951;SDS011;69214;55.880;37.542;2023-05-07T07:11:11;1.13;;;0.50;;
70951;SDS011;69214;55.880;37.542;2023-05-07T07:13:36;1.40;;;0.50;;
70951;SDS011;69214;55.880;37.542;2023-05-07T07:16:02;1.00;;;0.40;;
70951;SDS011;69214;55.880;37.542;2023-05-07T07:18:28;1.20;;;0.60;;
70951;SDS011;69214;55.880;37.542;2023-05-07T07:20:58;1.15;;;0.70;;
70951;SDS011;69214;55.880;37.542;2023-05-07T07:23:25;0.93;;;0.60;;
70951;SDS011;69214;55.880;37.542;2023-05-07T07:25:54;1.00;;;0.47;;
70951;SDS011;69214;55.880;37.542;2023-05-07T07:28:20;1.70;;;0.70;;
70951;SDS011;69214;55.880;37.542;2023-05-07T07:30:47;1.20;;;0.70;;
70951;SDS011;69214;55.880;37.542;2023-05-07T07:33:14;1.30;;;0.70;;
70951;SDS011;69214;55.880;37.542;2023-05-07T07:35:40;1.15;;;0.50;;
70951;SDS011;69214;55.880;37.542;2023-05-07T07:38:09;1.73;;;0.70;;
70951;SDS011;69214;55.880;37.542;2023-05-07T07:40:35;1.08;;;0.50;;
70951;SDS011;69214;55.880;37.542;2023-05-07T07:43:01;1.13;;;0.40;;
70951;SDS011;69214;55.880;37.542;2023-05-07T07:45:27;0.70;;;0.30;;
70951;SDS011;69214;55.880;37.542;2023-05-07T07:47:53;1.13;;;0.30;;
70951;SDS011;69214;55.880;37.542;2023-05-07T07:50:20;0.98;;;0.20;;
70951;SDS011;69214;55.880;37.542;2023-05-07T07:52:46;0.60;;;0.20;;
70951;SDS011;69214;55.880;37.542;2023-05-07T07:55:15;2.47;;;0.30;;
70951;SDS011;69214;55.880;37.542;2023-05-07T07:57:49;3.92;;;0.30;;
70951;SDS011;69214;55.880;37.542;2023-05-07T08:00:16;1.73;;;0.33;;
70951;SDS011;69214;55.880;37.542;2023-05-07T08:02:50;1.23;;;0.30;;
70951;SDS011;69214;55.880;37.542;2023-05-07T08:05:23;1.20;;;0.30;;
70951;SDS011;69214;55.880;37.542;2023-05-07T08:07:50;1.75;;;0.30;;
70951;SDS011;69214;55.880;37.542;2023-05-07T08:10:24;4.63;;;0.50;;
70951;SDS011;69214;55.880;37.542;2023-05-07T08:12:56;1.10;;;0.23;;
70951;SDS011;69214;55.880;37.542;2023-05-07T08:15:22;0.90;;;0.30;;
70951;SDS011;69214;55.880;37.542;2023-05-07T08:17:49;1.55;;;0.20;;
70951;SDS011;69214;55.880;37.542;2023-05-07T08:20:15;1.20;;;0.20;;
70951;SDS011;69214;55.880;37.542;2023-05-07T08:22:41;0.60;;;0.20;;
70951;SDS011;69214;55.880;37.542;2023-05-07T08:25:07;0.75;;;0.20;;
70951;SDS011;69214;55.880;37.542;2023-05-07T08:27:33;1.10;;;0.28;;
70951;SDS011;69214;55.880;37.542;2023-05-07T08:29:59;3.07;;;0.20;;
70951;SDS011;69214;55.880;37.542;2023-05-07T08:32:25;1.85;;;0.13;;
70951;SDS011;69214;55.880;37.542;2023-05-07T08:34:52;1.30;;;0.20;;
70951;SDS011;69214;55.880;37.542;2023-05-07T08:37:18;1.27;;;0.20;;
70951;SDS011;69214;55.880;37.542;2023-05-07T08:39:44;1.38;;;0.20;;
70951;SDS011;69214;55.880;37.542;2023-05-07T08:42:16;1.50;;;0.20;;
70951;SDS011;69214;55.880;37.542;2023-05-07T08:44:44;1.75;;;0.20;;
70951;SDS011;69214;55.880;37.542;2023-05-07T08:47:13;0.70;;;0.20;;
70951;SDS011;69214;55.880;37.542;2023-05-07T08:49:40;0.90;;;0.20;;
70951;SDS011;69214;55.880;37.542;2023-05-07T08:52:06;1.90;;;0.20;;
70951;SDS011;69214;55.880;37.542;2023-05-07T08:54:32;0.47;;;0.10;;
70951;SDS011;69214;55.880;37.542;2023-05-07T08:57:00;0.80;;;0.20;;
70951;SDS011;69214;55.880;37.542;2023-05-07T08:59:27;1.98;;;0.20;;
70951;SDS011;69214;55.880;37.542;2023-05-07T09:01:53;0.40;;;0.10;;
70951;SDS011;69214;55.880;37.542;2023-05-07T09:04:19;0.40;;;0.10;;
70951;SDS011;69214;55.880;37.542;2023-05-07T09:06:45;1.40;;;0.20;;
70951;SDS011;69214;55.880;37.542;2023-05-07T09:09:14;1.75;;;0.20;;
70951;SDS011;69214;55.880;37.542;2023-05-07T09:11:44;1.58;;;0.20;;
70951;SDS011;69214;55.880;37.542;2023-05-07T09:14:12;2.03;;;0.20;;
70951;SDS011;69214;55.880;37.542;2023-05-07T09:16:41;0.73;;;0.17;;
70951;SDS011;69214;55.880;37.542;2023-05-07T09:19:07;1.05;;;0.20;;
70951;SDS011;69214;55.880;37.542;2023-05-07T09:21:34;0.57;;;0.10;;
70951;SDS011;69214;55.880;37.542;2023-05-07T09:24:03;0.93;;;0.20;;
70951;SDS011;69214;55.880;37.542;2023-05-07T09:26:37;3.33;;;0.30;;
70951;SDS011;69214;55.880;37.542;2023-05-07T09:29:04;1.85;;;0.20;;
70951;SDS011;69214;55.880;37.542;2023-05-07T09:31:30;1.08;;;0.40;;
70951;SDS011;69214;55.880;37.542;2023-05-07T09:33:56;1.13;;;0.23;;
70951;SDS011;69214;55.880;37.542;2023-05-07T09:36:25;2.33;;;0.22;;
70951;SDS011;69214;55.880;37.542;2023-05-07T09:38:53;0.98;;;0.25;;
70951;SDS011;69214;55.880;37.542;2023-05-07T09:41:18;1.27;;;0.20;;
70951;SDS011;69214;55.880;37.542;2023-05-07T09:44:04;1.63;;;0.28;;
70951;SDS011;69214;55.880;37.542;2023-05-07T09:46:36;1.63;;;0.30;;
70951;SDS011;69214;55.880;37.542;2023-05-07T09:49:16;1.65;;;0.40;;
70951;SDS011;69214;55.880;37.542;2023-05-07T09:51:49;0.73;;;0.20;;
70951;SDS011;69214;55.880;37.542;2023-05-07T09:54:18;0.50;;;0.10;;
70951;SDS011;69214;55.880;37.542;2023-05-07T09:56:50;1.92;;;0.40;;
70951;SDS011;69214;55.880;37.542;2023-05-07T09:59:19;0.97;;;0.20;;
70951;SDS011;69214;55.880;37.542;2023-05-07T10:01:47;0.80;;;0.20;;
70951;SDS011;69214;55.880;37.542;2023-05-07T10:04:15;0.70;;;0.20;;
70951;SDS011;69214;55.880;37.542;2023-05-07T10:06:43;0.98;;;0.20;;
70951;SDS011;69214;55.880;37.542;2023-05-07T10:09:10;1.17;;;0.22;;
70951;SDS011;69214;55.880;37.542;2023-05-07T10:11:37;0.60;;;0.17;;
70951;SDS011;69214;55.880;37.542;2023-05-07T10:14:03;2.20;;;0.20;;
70951;SDS011;69214;55.880;37.542;2023-05-07T10:16:32;2.00;;;0.32;;
70951;SDS011;69214;55.880;37.542;2023-05-07T10:19:05;1.15;;;0.20;;
70951;SDS011;69214;55.880;37.542;2023-05-07T10:21:35;1.75;;;0.28;;
70951;SDS011;69214;55.880;37.542;2023-05-07T10:26:36;3.47;;;0.30;;
70951;SDS011;69214;55.880;37.542;2023-05-07T10:29:15;1.92;;;0.40;;
70951;SDS011;69214;55.880;37.542;2023-05-07T10:35:01;1.80;;;0.40;;
70951;SDS011;69214;55.880;37.542;2023-05-07T10:37:30;2.70;;;0.50;;
70951;SDS011;69214;55.880;37.542;2023-05-07T10:39:57;4.03;;;0.40;;
70951;SDS011;69214;55.880;37.542;2023-05-07T10:42:24;1.20;;;0.30;;
70951;SDS011;69214;55.880;37.542;2023-05-07T10:44:53;0.80;;;0.20;;
70951;SDS011;69214;55.880;37.542;2023-05-07T10:47:25;1.40;;;0.30;;
70951;SDS011;69214;55.880;37.542;2023-05-07T10:50:38;0.70;;;0.20;;
70951;SDS011;69214;55.880;37.542;2023-05-07T10:52:44;2.25;;;0.30;;
70951;SDS011;69214;55.880;37.542;2023-05-07T10:57:47;1.05;;;0.30;;
70951;SDS011;69214;55.880;37.542;2023-05-07T11:03:11;3.40;;;0.53;;
70951;SDS011;69214;55.880;37.542;2023-05-07T11:08:55;1.05;;;0.20;;
70951;SDS011;69214;55.880;37.542;2023-05-07T11:17:11;4.70;;;0.60;;
70951;SDS011;69214;55.880;37.542;2023-05-07T11:19:49;1.48;;;0.40;;
70951;SDS011;69214;55.880;37.542;2023-05-07T11:22:37;2.10;;;0.30;;
70951;SDS011;69214;55.880;37.542;2023-05-07T11:25:40;1.85;;;0.38;;
70951;SDS011;69214;55.880;37.542;2023-05-07T11:28:15;1.00;;;0.20;;
70951;SDS011;69214;55.880;37.542;2023-05-07T11:30:53;2.10;;;0.40;;
70951;SDS011;69214;55.880;37.542;2023-05-07T11:33:20;1.23;;;0.28;;
70951;SDS011;69214;55.880;37.542;2023-05-07T11:35:49;2.22;;;0.30;;
70951;SDS011;69214;55.880;37.542;2023-05-07T11:38:17;1.23;;;0.30;;
70951;SDS011;69214;55.880;37.542;2023-05-07T11:40:56;1.63;;;0.30;;
70951;SDS011;69214;55.880;37.542;2023-05-07T11:43:27;2.27;;;0.40;;
70951;SDS011;69214;55.880;37.542;2023-05-07T11:45:53;1.75;;;0.30;;
70951;SDS011;69214;55.880;37.542;2023-05-07T11:48:27;1.73;;;0.32;;
70951;SDS011;69214;55.880;37.542;2023-05-07T11:50:54;1.15;;;0.35;;
70951;SDS011;69214;55.880;37.542;2023-05-07T11:53:25;2.13;;;0.20;;
70951;SDS011;69214;55.880;37.542;2023-05-07T11:55:52;1.00;;;0.30;;
70951;SDS011;69214;55.880;37.542;2023-05-07T11:58:24;2.78;;;0.25;;
70951;SDS011;69214;55.880;37.542;2023-05-07T12:00:53;1.45;;;0.35;;
70951;SDS011;69214;55.880;37.542;2023-05-07T12:03:22;1.40;;;0.40;;
70951;SDS011;69214;55.880;37.542;2023-05-07T12:05:48;4.37;;;0.20;;
70951;SDS011;69214;55.880;37.542;2023-05-07T12:08:17;1.60;;;0.30;;
70951;SDS011;69214;55.880;37.542;2023-05-07T12:10:44;1.92;;;0.52;;
70951;SDS011;69214;55.880;37.542;2023-05-07T12:13:16;1.25;;;0.30;;
70951;SDS011;69214;55.880;37.542;2023-05-07T12:15:43;1.13;;;0.10;;
70951;SDS011;69214;55.880;37.542;2023-05-07T12:18:09;3.42;;;0.20;;
70951;SDS011;69214;55.880;37.542;2023-05-07T12:20:36;1.48;;;0.30;;
70951;SDS011;69214;55.880;37.542;2023-05-07T12:23:02;2.35;;;0.32;;
70951;SDS011;69214;55.880;37.542;2023-05-07T12:25:31;1.48;;;0.28;;
70951;SDS011;69214;55.880;37.542;2023-05-07T12:28:00;2.07;;;0.33;;
70951;SDS011;69214;55.880;37.542;2023-05-07T12:30:26;0.88;;;0.20;;
70951;SDS011;69214;55.880;37.542;2023-05-07T12:32:55;2.28;;;0.40;;
70951;SDS011;69214;55.880;37.542;2023-05-07T12:35:31;2.78;;;0.50;;
70951;SDS011;69214;55.880;37.542;2023-05-07T12:37:58;2.08;;;0.40;;
70951;SDS011;69214;55.880;37.542;2023-05-07T12:40:38;1.00;;;0.23;;
70951;SDS011;69214;55.880;37.542;2023-05-07T12:45:46;1.25;;;0.30;;
70951;SDS011;69214;55.880;37.542;2023-05-07T12:48:14;3.25;;;0.30;;
70951;SDS011;69214;55.880;37.542;2023-05-07T12:50:40;7.73;;;0.40;;
70951;SDS011;69214;55.880;37.542;2023-05-07T12:53:06;0.93;;;0.23;;
70951;SDS011;69214;55.880;37.542;2023-05-07T12:55:49;1.92;;;0.40;;
70951;SDS011;69214;55.880;37.542;2023-05-07T12:58:20;2.13;;;0.30;;
70951;SDS011;69214;55.880;37.542;2023-05-07T13:00:51;2.78;;;0.30;;
70951;SDS011;69214;55.880;37.542;2023-05-07T13:03:20;0.95;;;0.20;;
70951;SDS011;69214;55.880;37.542;2023-05-07T13:05:48;2.03;;;0.30;;
70951;SDS011;69214;55.880;37.542;2023-05-07T13:08:23;1.65;;;0.30;;
70951;SDS011;69214;55.880;37.542;2023-05-07T13:10:52;1.10;;;0.30;;
70951;SDS011;69214;55.880;37.542;2023-05-07T13:13:18;2.20;;;0.30;;
70951;SDS011;69214;55.880;37.542;2023-05-07T13:15:45;1.92;;;0.38;;
70951;SDS011;69214;55.880;37.542;2023-05-07T13:18:12;1.63;;;0.30;;
70951;SDS011;69214;55.880;37.542;2023-05-07T13:20:37;1.83;;;0.32;;
70951;SDS011;69214;55.880;37.542;2023-05-07T13:23:03;1.90;;;0.30;;
70951;SDS011;69214;55.880;37.542;2023-05-07T13:25:30;1.13;;;0.20;;
70951;SDS011;69214;55.880;37.542;2023-05-07T13:27:56;1.30;;;0.20;;
70951;SDS011;69214;55.880;37.542;2023-05-07T13:30:22;1.10;;;0.30;;
70951;SDS011;69214;55.880;37.542;2023-05-07T13:32:48;2.35;;;0.20;;
70951;SDS011;69214;55.880;37.542;2023-05-07T13:35:17;1.00;;;0.27;;
70951;SDS011;69214;55.880;37.542;2023-05-07T13:37:43;0.85;;;0.20;;
70951;SDS011;69214;55.880;37.542;2023-05-07T13:40:10;1.65;;;0.30;;
70951;SDS011;69214;55.880;37.542;2023-05-07T13:42:36;1.00;;;0.20;;
70951;SDS011;69214;55.880;37.542;2023-05-07T13:45:02;2.60;;;0.30;;
70951;SDS011;69214;55.880;37.542;2023-05-07T13:47:29;1.80;;;0.40;;
70951;SDS011;69214;55.880;37.542;2023-05-07T13:49:55;5.07;;;0.30;;
70951;SDS011;69214;55.880;37.542;2023-05-07T13:52:21;1.80;;;0.27;;
70951;SDS011;69214;55.880;37.542;2023-05-07T13:54:46;1.25;;;0.28;;
70951;SDS011;69214;55.880;37.542;2023-05-07T13:57:12;0.93;;;0.20;;
70951;SDS011;69214;55.880;37.542;2023-05-07T13:59:38;2.30;;;0.27;;
70951;SDS011;69214;55.880;37.542;2023-05-07T14:02:04;1.85;;;0.38;;
70951;SDS011;69214;55.880;37.542;2023-05-07T14:04:30;1.70;;;0.33;;
70951;SDS011;69214;55.880;37.542;2023-05-07T14:06:56;2.53;;;0.30;;
70951;SDS011;69214;55.880;37.542;2023-05-07T14:09:21;1.65;;;0.30;;
70951;SDS011;69214;55.880;37.542;2023-05-07T14:11:47;2.57;;;0.40;;
70951;SDS011;69214;55.880;37.542;2023-05-07T14:14:19;1.42;;;0.30;;
70951;SDS011;69214;55.880;37.542;2023-05-07T14:16:45;3.33;;;0.30;;
70951;SDS011;69214;55.880;37.542;2023-05-07T14:19:11;2.08;;;0.30;;
70951;SDS011;69214;55.880;37.542;2023-05-07T14:21:37;1.43;;;0.30;;
70951;SDS011;69214;55.880;37.542;2023-05-07T14:24:03;2.38;;;0.20;;
70951;SDS011;69214;55.880;37.542;2023-05-07T14:26:31;2.45;;;0.35;;
70951;SDS011;69214;55.880;37.542;2023-05-07T14:28:57;1.50;;;0.30;;
70951;SDS011;69214;55.880;37.542;2023-05-07T14:31:23;2.05;;;0.30;;
70951;SDS011;69214;55.880;37.542;2023-05-07T14:33:50;1.33;;;0.30;;
70951;SDS011;69214;55.880;37.542;2023-05-07T14:36:17;1.17;;;0.30;;
70951;SDS011;69214;55.880;37.542;2023-05-07T14:38:46;1.90;;;0.30;;
70951;SDS011;69214;55.880;37.542;2023-05-07T14:41:12;2.67;;;0.10;;
70951;SDS011;69214;55.880;37.542;2023-05-07T14:43:38;1.23;;;0.30;;
70951;SDS011;69214;55.880;37.542;2023-05-07T14:46:04;0.93;;;0.20;;
70951;SDS011;69214;55.880;37.542;2023-05-07T14:48:29;1.40;;;0.40;;
70951;SDS011;69214;55.880;37.542;2023-05-07T14:50:55;2.03;;;0.20;;
70951;SDS011;69214;55.880;37.542;2023-05-07T14:53:21;1.23;;;0.20;;
70951;SDS011;69214;55.880;37.542;2023-05-07T14:55:48;1.27;;;0.30;;
70951;SDS011;69214;55.880;37.542;2023-05-07T14:58:14;2.15;;;0.22;;
70951;SDS011;69214;55.880;37.542;2023-05-07T15:00:40;1.20;;;0.30;;